Terminal Aerodrome Forecast
Issued by NWS Louisville, KY

Home | Current Version | Previous Version | Text Only | Print | Product List | Glossary On
Versions: 1 2 3 4 5 6 7 8 9 10 11 12 13 14 15 16 17 18 19 20 21 22 23
000
FTUS43 KLMK 040700 AAA
TAFLEX
TAF AMD
KLEX 040704Z 0407/0506 30006KT 6SM -RA BR SCT005 BKN010
      TEMPO 0407/0409 3SM -SHRA BR BKN005
     FM040900 33007KT 3SM -RA BR BKN006
     FM041700 36009KT 2SM -RAPL BR BKN007
     FM041900 36009KT 2SM -PL BR BKN007
     FM042200 36010KT 1SM -SN BR BKN004=

USA.gov is the U.S. government's official web portal to all federal, state and local government web resources and services.